Time;durP1;ratioP1;P1;durP2;ratioP2;P2;SDS_P1;SDS_P2;PMS_P1;PMS_P2;Temp;Humidity;BMP_temperature;BMP_pressure;BME280_temperature;BME280_humidity;BME280_pressure;Samples;Min_cycle;Max_cycle;Signal;HPM_P1;HPM_P2
2023/01/11 00:01:36;;;;;;;8.17;5.87;;;;;;;-1.96;100.00;101636.72;5034766;28;20458;-75
2023/01/11 00:04:02;;;;;;;12.13;6.07;;;;;;;-1.92;100.00;101635.69;5036463;28;20041;-73
2023/01/11 00:06:28;;;;;;;8.52;5.20;;;;;;;-1.90;100.00;101642.53;5036757;28;20036;-74
2023/01/11 00:08:58;;;;;;;7.03;4.93;;;;;;;-1.93;100.00;101631.38;5035317;28;20033;-75
2023/01/11 00:11:24;;;;;;;9.18;5.95;;;;;;;-1.96;100.00;101629.72;5018013;28;20029;-75
2023/01/11 00:13:49;;;;;;;6.83;6.00;;;;;;;-1.91;100.00;101637.38;5034455;28;20074;-73
2023/01/11 00:16:16;;;;;;;8.13;5.97;;;;;;;-1.90;100.00;101636.47;5037685;28;20048;-74
2023/01/11 00:18:45;;;;;;;8.60;6.67;;;;;;;-1.89;100.00;101646.00;5036481;28;20044;-74
2023/01/11 00:21:11;;;;;;;11.48;5.93;;;;;;;-1.94;100.00;101635.72;5036528;28;20312;-76
2023/01/11 00:23:37;;;;;;;7.73;6.73;;;;;;;-1.95;100.00;101635.81;5034059;28;20262;-75
2023/01/11 00:26:04;;;;;;;8.23;4.53;;;;;;;-1.92;100.00;101643.50;5034270;28;20033;-76
2023/01/11 00:28:29;;;;;;;10.88;5.40;;;;;;;-1.89;100.00;101641.63;5034181;28;20117;-75
2023/01/11 00:30:55;;;;;;;6.57;5.83;;;;;;;-1.86;100.00;101648.47;5034829;28;20033;-75
2023/01/11 00:33:20;;;;;;;9.83;6.90;;;;;;;-1.90;100.00;101632.09;5035222;28;20466;-75
2023/01/11 00:35:46;;;;;;;12.80;6.80;;;;;;;-1.82;100.00;101644.81;5033519;28;20464;-74
2023/01/11 00:38:42;;;;;;;9.70;7.27;;;;;;;-1.85;100.00;101636.25;5033799;28;20107;-75
2023/01/11 00:47:55;;;;;;;9.60;7.13;;;;;;;-1.84;100.00;101633.59;5033710;28;20548;-74
2023/01/11 00:49:10;;;;;;;13.43;6.38;;;;;;;-1.86;100.00;101640.63;5033562;28;20263;-73
2023/01/11 00:51:36;;;;;;;8.47;6.57;;;;;;;-1.87;100.00;101647.63;5033010;28;20061;-74
2023/01/11 00:54:02;;;;;;;8.40;6.30;;;;;;;-1.80;100.00;101642.16;5033820;28;20032;-74
2023/01/11 00:56:28;;;;;;;13.15;7.55;;;;;;;-1.81;100.00;101641.28;5033591;28;20481;-74
2023/01/11 00:58:56;;;;;;;8.57;6.40;;;;;;;-1.82;100.00;101631.78;5033715;28;20060;-76
2023/01/11 01:01:22;;;;;;;11.90;7.50;;;;;;;-1.78;100.00;101635.94;5034535;28;20051;-75
2023/01/11 01:03:47;;;;;;;8.20;5.73;;;;;;;-1.78;100.00;101632.50;5034701;28;20033;-76
2023/01/11 01:06:13;;;;;;;12.37;5.83;;;;;;;-1.77;100.00;101642.03;5017569;28;20033;-75
2023/01/11 01:08:38;;;;;;;8.57;6.07;;;;;;;-1.82;100.00;101639.59;5034699;28;20488;-75
2023/01/11 01:11:04;;;;;;;9.83;6.47;;;;;;;-1.77;100.00;101648.09;5017053;28;20029;-75
2023/01/11 01:16:14;;;;;;;8.93;6.40;;;;;;;-1.83;100.00;101643.13;5033677;28;20057;-74
2023/01/11 01:18:39;;;;;;;7.78;5.60;;;;;;;-1.73;100.00;101643.63;5033629;28;20276;-75
2023/01/11 01:21:05;;;;;;;7.97;5.80;;;;;;;-1.74;100.00;101634.91;5034208;28;20385;-75
2023/01/11 01:23:30;;;;;;;8.60;5.30;;;;;;;-1.70;100.00;101638.28;5033248;28;20026;-74
2023/01/11 01:25:56;;;;;;;9.23;6.33;;;;;;;-1.80;100.00;101622.09;5033126;28;20037;-75
2023/01/11 01:28:21;;;;;;;7.53;5.77;;;;;;;-1.67;100.00;101656.44;5033116;28;20033;-75
2023/01/11 01:30:51;;;;;;;8.90;6.40;;;;;;;-1.74;100.00;101632.28;5032819;28;20123;-75
2023/01/11 01:33:16;;;;;;;10.60;7.00;;;;;;;-1.64;100.00;101638.88;5034894;28;20040;-75
2023/01/11 01:35:42;;;;;;;8.77;5.80;;;;;;;-1.66;100.00;101645.91;5035505;28;20322;-75
2023/01/11 01:38:07;;;;;;;7.87;5.93;;;;;;;-1.70;100.00;101636.50;5033149;28;20033;-75
2023/01/11 01:40:39;;;;;;;8.77;5.17;;;;;;;-1.68;100.00;101642.50;5033155;28;20113;-75
2023/01/11 01:43:10;;;;;;;10.20;5.35;;;;;;;-1.68;100.00;101647.75;5033069;28;20524;-74
2023/01/11 01:45:35;;;;;;;7.63;6.70;;;;;;;-1.72;100.00;101630.50;5032753;28;20108;-75
2023/01/11 01:48:02;;;;;;;10.77;5.13;;;;;;;-1.69;100.00;101640.81;5032729;28;20120;-74
2023/01/11 01:50:34;;;;;;;9.18;6.30;;;;;;;-1.65;100.00;101636.31;5032736;28;20033;-75
2023/01/11 01:53:06;;;;;;;8.67;6.13;;;;;;;-1.73;100.00;101618.34;5033125;28;20120;-75
2023/01/11 01:55:35;;;;;;;8.23;5.38;;;;;;;-1.75;100.00;101620.16;5035634;28;20252;-76
2023/01/11 01:58:05;;;;;;;8.57;5.38;;;;;;;-1.66;100.00;101635.47;5035002;28;20033;-76
2023/01/11 02:00:32;;;;;;;8.00;6.03;;;;;;;-1.65;100.00;101620.66;5035638;28;20175;-75
2023/01/11 02:02:59;;;;;;;8.50;5.35;;;;;;;-1.66;100.00;101630.25;5034372;28;20275;-77
2023/01/11 02:05:25;;;;;;;8.10;5.53;;;;;;;-1.68;100.00;101626.84;5035506;28;20038;-74
2023/01/11 02:07:53;;;;;;;7.63;5.77;;;;;;;-1.65;100.00;101631.09;5035052;28;20330;-77
2023/01/11 02:10:22;;;;;;;6.50;5.03;;;;;;;-1.66;100.00;101640.69;5019820;28;20920;-74
2023/01/11 02:12:54;;;;;;;7.93;5.25;;;;;;;-1.71;100.00;101637.44;5053896;28;20045;-74
2023/01/11 02:15:22;;;;;;;8.50;5.13;;;;;;;-1.67;100.00;101633.78;5040157;28;20053;-76
2023/01/11 02:17:57;;;;;;;8.27;4.93;;;;;;;-1.65;100.00;101634.56;5034912;28;20483;-75
2023/01/11 02:20:44;;;;;;;6.50;4.93;;;;;;;-1.61;100.00;101630.03;5016449;28;20140;-76
2023/01/11 02:23:30;;;;;;;6.37;5.30;;;;;;;-1.58;100.00;101635.13;5033045;28;20030;-75
2023/01/11 02:26:17;;;;;;;7.40;4.93;;;;;;;-1.55;100.00;101632.41;5034685;28;20275;-74
2023/01/11 02:29:02;;;;;;;6.60;4.87;;;;;;;-1.54;100.00;101638.47;5043047;28;20249;-75
2023/01/11 02:31:50;;;;;;;8.60;5.20;;;;;;;-1.54;100.00;101633.25;5026075;28;20283;-74
2023/01/11 02:34:40;;;;;;;5.72;5.15;;;;;;;-1.58;100.00;101629.91;5040208;28;20037;-75
2023/01/11 02:37:49;;;;;;;8.63;5.93;;;;;;;-1.67;100.00;101623.31;5034802;28;20547;-74
2023/01/11 02:40:26;;;;;;;7.32;4.78;;;;;;;-1.64;100.00;101627.56;5049880;28;20261;-73
2023/01/11 02:45:58;;;;;;;6.13;4.70;;;;;;;-1.66;100.00;101627.63;5051910;28;20032;-74
2023/01/11 02:48:39;;;;;;;5.38;4.85;;;;;;;-1.62;100.00;101626.59;5032415;28;20343;-75
2023/01/11 02:51:15;;;;;;;8.40;5.63;;;;;;;-1.65;100.00;101631.94;5032593;28;20028;-72
2023/01/11 02:54:02;;;;;;;6.73;4.80;;;;;;;-1.66;100.00;101626.78;5014898;28;20335;-74
2023/01/11 02:56:31;;;;;;;7.63;5.20;;;;;;;-1.60;100.00;101637.81;5033859;28;20256;-75
2023/01/11 02:58:59;;;;;;;6.82;4.68;;;;;;;-1.63;100.00;101637.09;5032805;28;20264;-75
2023/01/11 03:01:25;;;;;;;5.63;4.85;;;;;;;-1.61;100.00;101643.97;5032039;28;20064;-73
2023/01/11 03:03:52;;;;;;;10.67;6.07;;;;;;;-1.62;100.00;101647.47;5032246;28;20067;-75
2023/01/11 03:06:33;;;;;;;17.25;6.25;;;;;;;-1.63;100.00;101632.72;5032444;28;20351;-74
2023/01/11 03:09:55;;;;;;;9.43;5.80;;;;;;;-1.73;100.00;101617.50;5041707;28;20142;-73
2023/01/11 03:15:44;;;;;;;7.40;5.87;;;;;;;-1.64;100.00;101633.63;5035314;28;20656;-73
2023/01/11 03:18:40;;;;;;;7.85;5.85;;;;;;;-1.58;100.00;101638.59;5035723;28;20274;-75
2023/01/11 03:21:22;;;;;;;6.85;4.57;;;;;;;-1.68;100.00;101639.91;5035899;28;20512;-74
2023/01/11 03:24:03;;;;;;;10.73;4.60;;;;;;;-1.60;100.00;101650.88;5035527;28;20033;-74
2023/01/11 03:26:28;;;;;;;7.05;5.03;;;;;;;-1.59;100.00;101649.13;5035491;28;20271;-73
2023/01/11 03:29:19;;;;;;;12.17;6.33;;;;;;;-1.60;100.00;101648.25;5035505;28;20025;-73
2023/01/11 03:32:00;;;;;;;7.57;6.10;;;;;;;-1.62;100.00;101642.25;5035255;28;20049;-73
2023/01/11 03:34:38;;;;;;;7.70;5.97;;;;;;;-1.58;100.00;101654.28;5035142;28;20026;-74
2023/01/11 03:37:09;;;;;;;6.70;5.38;;;;;;;-1.65;100.00;101649.38;5034944;28;20260;-74
2023/01/11 03:39:46;;;;;;;9.20;6.20;;;;;;;-1.63;100.00;101661.47;5035515;28;20037;-74
2023/01/11 03:42:15;;;;;;;6.40;5.40;;;;;;;-1.61;100.00;101670.06;5035467;28;20470;-74
2023/01/11 03:44:45;;;;;;;9.83;5.60;;;;;;;-1.60;100.00;101656.09;5035142;28;20527;-74
2023/01/11 03:47:14;;;;;;;8.55;5.60;;;;;;;-1.54;100.00;101654.16;5034505;28;20751;-75
2023/01/11 03:49:58;;;;;;;5.43;4.88;;;;;;;-1.53;100.00;101648.00;5000383;28;20024;-74
2023/01/11 03:52:37;;;;;;;6.35;5.13;;;;;;;-1.60;100.00;101640.44;5034676;28;20037;-73
2023/01/11 03:55:07;;;;;;;6.90;5.55;;;;;;;-1.53;100.00;101648.84;5016714;28;20043;-74
2023/01/11 03:57:37;;;;;;;9.35;5.32;;;;;;;-1.51;100.00;101643.56;5016640;28;20133;-73
2023/01/11 04:00:04;;;;;;;7.93;5.63;;;;;;;-1.51;100.00;101646.19;5016655;28;20121;-74
2023/01/11 04:02:38;;;;;;;8.80;3.75;;;;;;;-1.56;100.00;101633.31;5017170;28;20268;-75
2023/01/11 04:05:04;;;;;;;12.30;6.60;;;;;;;-1.64;100.00;101628.41;5035255;28;20100;-75
2023/01/11 04:07:30;;;;;;;9.53;6.23;;;;;;;-1.63;100.00;101642.31;5034376;28;20271;-76
2023/01/11 04:09:57;;;;;;;9.27;6.67;;;;;;;-1.72;100.00;101638.34;5034075;28;20284;-76
2023/01/11 04:12:23;;;;;;;9.45;6.32;;;;;;;-1.67;100.00;101657.28;5033702;28;20037;-74
2023/01/11 04:14:49;;;;;;;9.63;6.50;;;;;;;-1.70;100.00;101643.50;5016673;28;20029;-72
2023/01/11 04:17:14;;;;;;;7.83;6.50;;;;;;;-1.71;100.00;101647.03;5034112;28;20385;-72
2023/01/11 04:19:40;;;;;;;12.67;8.20;;;;;;;-1.69;100.00;101646.03;5034117;28;20112;-74
2023/01/11 04:22:05;;;;;;;10.00;6.97;;;;;;;-1.71;100.00;101640.03;5034245;28;20032;-74
2023/01/11 04:24:31;;;;;;;8.90;6.70;;;;;;;-1.68;100.00;101645.13;5000036;28;20493;-76
2023/01/11 04:26:56;;;;;;;11.07;7.27;;;;;;;-1.74;100.00;101647.97;5034389;28;20033;-77
2023/01/11 04:29:22;;;;;;;8.57;6.17;;;;;;;-1.61;100.00;101664.84;5034442;28;20033;-77
2023/01/11 04:31:47;;;;;;;12.47;6.20;;;;;;;-1.62;100.00;101660.53;5033982;28;20029;-71
2023/01/11 04:34:13;;;;;;;8.77;5.87;;;;;;;-1.64;100.00;101648.47;5034113;28;20064;-74
2023/01/11 04:36:39;;;;;;;11.93;6.37;;;;;;;-1.62;100.00;101657.09;5033670;28;20029;-70
2023/01/11 04:39:05;;;;;;;13.37;6.23;;;;;;;-1.64;100.00;101657.16;5033453;28;20403;-69
2023/01/11 04:44:15;;;;;;;9.77;5.63;;;;;;;-1.59;100.00;101651.72;5033609;28;20087;-71
2023/01/11 04:46:40;;;;;;;7.30;5.93;;;;;;;-1.58;100.00;101662.09;5033622;28;20272;-73
2023/01/11 04:49:05;;;;;;;8.17;5.70;;;;;;;-1.62;100.00;101657.09;5033875;28;20036;-73
2023/01/11 04:51:31;;;;;;;14.17;7.53;;;;;;;-1.61;100.00;101664.84;5033350;28;20488;-72
2023/01/11 04:53:57;;;;;;;8.30;5.93;;;;;;;-1.62;100.00;101663.16;5033366;28;20025;-73
2023/01/11 04:56:22;;;;;;;8.43;6.90;;;;;;;-1.62;100.00;101663.16;5033378;28;20050;-72
2023/01/11 04:58:48;;;;;;;11.63;6.70;;;;;;;-1.59;100.00;101673.47;5033070;28;20036;-70
2023/01/11 05:01:17;;;;;;;9.20;6.57;;;;;;;-1.59;100.00;101667.41;5033301;28;20037;-73
2023/01/11 05:03:43;;;;;;;;;;;;;;;-1.59;100.00;101664.78;5033599;28;20045;-73
2023/01/11 05:06:08;;;;;;;10.73;6.27;;;;;;;-1.65;100.00;101655.44;5033318;28;19913;-71
2023/01/11 05:08:34;;;;;;;9.40;5.80;;;;;;;-1.65;100.00;101655.44;5032846;28;20037;-72
2023/01/11 05:11:06;;;;;;;9.97;6.57;;;;;;;-1.71;100.00;101640.03;5033114;28;20037;-71
2023/01/11 05:13:41;;;;;;;7.50;6.15;;;;;;;-1.61;100.00;101658.78;5033094;28;20280;-72
2023/01/11 05:16:14;;;;;;;8.10;6.70;;;;;;;-1.60;100.00;101652.63;5032991;28;20095;-71
2023/01/11 05:19:03;;;;;;;9.40;7.20;;;;;;;-1.65;100.00;101658.06;5032367;28;20789;-72
2023/01/11 05:21:38;;;;;;;10.38;7.43;;;;;;;-1.67;100.00;101659.03;5030991;28;20668;-74
2023/01/11 05:24:05;;;;;;;7.77;6.00;;;;;;;-1.68;100.00;101659.94;5032786;28;20025;-71
2023/01/11 05:26:33;;;;;;;10.50;6.25;;;;;;;-1.71;100.00;101647.03;5032703;28;20676;-73
2023/01/11 05:29:00;;;;;;;9.77;7.15;;;;;;;-1.65;100.00;101649.38;5014571;28;20021;-72
2023/01/11 05:31:26;;;;;;;7.93;5.90;;;;;;;-1.67;100.00;101641.59;5032084;28;20040;-76
2023/01/11 05:33:55;;;;;;;9.10;6.27;;;;;;;-1.58;100.00;101649.06;5032523;28;20252;-73
2023/01/11 05:36:21;;;;;;;8.13;6.57;;;;;;;-1.51;100.00;101661.84;5031241;28;20465;-72
2023/01/11 05:38:48;;;;;;;9.43;6.23;;;;;;;-1.59;100.00;101642.13;5032580;28;20061;-71
2023/01/11 05:41:15;;;;;;;8.10;6.03;;;;;;;-1.58;100.00;101653.44;5014589;28;20296;-73
2023/01/11 05:46:27;;;;;;;8.80;5.90;;;;;;;-1.71;100.00;101658.31;5030180;28;20279;-71
2023/01/11 05:48:54;;;;;;;9.03;5.43;;;;;;;-1.76;100.00;101652.41;5014403;28;20260;-72
2023/01/11 05:51:20;;;;;;;10.30;6.13;;;;;;;-1.70;100.00;101664.38;5031957;28;20377;-71
2023/01/11 05:53:46;;;;;;;11.47;6.13;;;;;;;-1.78;100.00;101649.00;5032410;28;20306;-70
2023/01/11 05:56:11;;;;;;;7.80;6.03;;;;;;;-1.66;100.00;101655.50;5032860;28;20437;-70
2023/01/11 05:58:37;;;;;;;9.37;5.90;;;;;;;-1.65;100.00;101658.06;5016104;28;20037;-69
2023/01/11 06:01:03;;;;;;;11.13;6.17;;;;;;;-1.68;100.00;101652.13;5032631;28;20113;-72
2023/01/11 06:03:28;;;;;;;8.67;6.60;;;;;;;-1.68;100.00;101660.81;5032342;28;20040;-74
2023/01/11 06:05:54;;;;;;;9.93;6.03;;;;;;;-1.67;99.95;101662.50;5032155;28;20112;-74
2023/01/11 06:08:20;;;;;;;7.93;6.37;;;;;;;-1.72;99.69;101664.44;5032440;28;20480;-72
2023/01/11 06:10:53;;;;;;;7.80;5.70;;;;;;;-1.73;100.00;101675.81;5032029;28;20025;-72
2023/01/11 06:13:25;;;;;;;9.63;5.93;;;;;;;-1.77;100.00;101665.53;5031286;28;20420;-74
2023/01/11 06:15:52;;;;;;;6.57;5.87;;;;;;;-1.68;100.00;101663.41;5031839;28;20276;-71
2023/01/11 06:18:18;;;;;;;9.60;6.17;;;;;;;-1.74;100.00;101653.19;5032077;28;20358;-72
2023/01/11 06:20:48;;;;;;;7.53;6.30;;;;;;;-1.73;100.00;101654.91;5031918;28;20307;-71
2023/01/11 06:23:14;;;;;;;10.57;5.90;;;;;;;-1.72;100.00;101661.84;5032162;28;20017;-73
2023/01/11 06:25:39;;;;;;;10.17;5.57;;;;;;;-1.70;100.00;101675.69;5032150;28;20279;-71
2023/01/11 06:28:05;;;;;;;8.10;5.70;;;;;;;-1.72;100.00;101677.50;5034851;28;20155;-71
2023/01/11 06:30:30;;;;;;;6.57;5.43;;;;;;;-1.75;100.00;101672.38;5037053;28;20485;-71
2023/01/11 06:33:04;;;;;;;6.63;5.30;;;;;;;-1.72;100.00;101676.66;5033747;28;20036;-72
2023/01/11 06:35:41;;;;;;;7.37;5.20;;;;;;;-1.69;100.00;101671.31;5032157;28;20489;-72
2023/01/11 06:38:09;;;;;;;9.57;6.50;;;;;;;-1.73;99.37;101667.97;5032280;28;20296;-72
2023/01/11 06:40:35;;;;;;;11.50;6.00;;;;;;;-1.83;99.09;101673.59;5031907;28;20260;-72
2023/01/11 06:43:01;;;;;;;11.07;6.33;;;;;;;-1.85;100.00;101665.84;5014465;28;20291;-73
2023/01/11 06:45:27;;;;;;;13.17;7.27;;;;;;;-1.84;98.95;101677.97;5032200;28;20622;-74
2023/01/11 06:47:52;;;;;;;11.27;7.17;;;;;;;-1.84;99.42;101671.91;5031792;28;20139;-72
2023/01/11 06:50:18;;;;;;;11.63;7.47;;;;;;;-1.94;99.94;101664.44;5036439;28;20040;-74
2023/01/11 06:52:54;;;;;;;9.50;5.87;;;;;;;-1.86;99.98;101664.13;5019011;28;20132;-71
2023/01/11 06:55:21;;;;;;;13.52;5.90;;;;;;;-1.83;99.15;101674.47;5036238;28;20025;-74
2023/01/11 06:57:46;;;;;;;13.63;6.20;;;;;;;-2.15;99.01;101620.06;5035785;28;20052;-73
2023/01/11 07:00:12;;;;;;;9.33;5.90;;;;;;;-2.19;99.42;101625.41;5017746;28;20639;-70
2023/01/11 07:02:38;;;;;;;12.37;7.67;;;;;;;-1.94;99.68;101666.22;5035477;28;20033;-70
2023/01/11 07:05:04;;;;;;;19.97;11.90;;;;;;;-1.95;99.14;101654.06;5017660;28;20026;-74
2023/01/11 07:07:29;;;;;;;13.93;9.17;;;;;;;-1.91;99.54;101668.69;5017888;28;20029;-71
2023/01/11 07:09:55;;;;;;;8.20;6.57;;;;;;;-1.87;99.46;101683.31;5035509;28;20032;-72
2023/01/11 07:12:20;;;;;;;11.50;7.10;;;;;;;-1.92;98.77;101669.63;5035188;28;20037;-71
2023/01/11 07:14:46;;;;;;;8.37;5.57;;;;;;;-2.01;98.92;101675.22;5035578;28;20543;-71
2023/01/11 07:17:11;;;;;;;9.93;6.50;;;;;;;-1.96;99.25;101679.31;5035492;28;20485;-71
2023/01/11 07:19:37;;;;;;;10.50;6.57;;;;;;;-1.95;99.28;101677.56;5035129;28;20061;-73
2023/01/11 07:22:03;;;;;;;9.23;5.77;;;;;;;-1.93;99.44;101688.78;5017154;28;20461;-72
2023/01/11 07:24:28;;;;;;;7.70;5.43;;;;;;;-1.86;99.57;101687.63;5018312;28;20048;-72
2023/01/11 07:26:55;;;;;;;7.93;6.00;;;;;;;-1.92;99.41;101674.84;5003555;28;20350;-70
2023/01/11 07:29:21;;;;;;;9.67;5.70;;;;;;;-1.90;99.54;101686.91;5017891;28;20052;-72
2023/01/11 07:31:46;;;;;;;7.87;5.37;;;;;;;-1.84;99.07;101687.56;5034880;28;20307;-70
2023/01/11 07:34:12;;;;;;;11.00;6.10;;;;;;;-1.88;98.86;101682.47;5017305;28;20505;-72
2023/01/11 07:36:38;;;;;;;11.65;7.40;;;;;;;-1.81;99.14;101693.53;5035222;28;20044;-72
2023/01/11 07:39:05;;;;;;;10.67;6.13;;;;;;;-1.89;98.47;101685.16;5035487;28;20385;-71
2023/01/11 07:44:15;;;;;;;13.60;9.57;;;;;;;-1.88;99.60;101686.84;5055264;28;20025;-72
2023/01/11 07:46:40;;;;;;;24.57;12.60;;;;;;;-1.86;99.08;101682.41;5043872;28;20425;-71
2023/01/11 07:49:06;;;;;;;15.23;7.33;;;;;;;-1.88;99.13;101692.06;5017241;28;20033;-73
2023/01/11 07:51:31;;;;;;;8.00;5.77;;;;;;;-1.88;98.69;101700.75;5035654;28;20108;-71
2023/01/11 07:54:01;;;;;;;11.23;6.70;;;;;;;-1.87;99.00;101706.81;5034785;28;20049;-72
2023/01/11 07:56:27;;;;;;;12.63;7.00;;;;;;;-1.82;99.19;101712.72;5034718;28;20036;-72
2023/01/11 07:58:53;;;;;;;8.60;6.50;;;;;;;-1.81;99.12;101693.53;5034030;28;20817;-71
2023/01/11 08:01:19;;;;;;;12.87;6.77;;;;;;;-1.72;98.46;101708.84;5034166;28;20264;-72
2023/01/11 08:03:45;;;;;;;10.57;6.83;;;;;;;-1.78;99.02;101721.28;5034552;28;20076;-74
2023/01/11 08:06:10;;;;;;;12.47;6.83;;;;;;;-1.81;99.24;101714.41;5034601;28;20279;-73
2023/01/11 08:08:36;;;;;;;8.27;5.87;;;;;;;-1.76;98.77;101722.91;5034268;28;20417;-73
2023/01/11 08:16:36;;;;;;;9.67;7.33;;;;;;;-1.70;98.11;101732.28;5034334;28;20367;-71
2023/01/11 08:19:01;;;;;;;11.13;6.83;;;;;;;-1.74;98.21;101726.31;5034335;28;20272;-72
2023/01/11 08:21:27;;;;;;;9.43;7.20;;;;;;;-1.81;98.17;101724.84;5033878;28;20256;-75
2023/01/11 08:23:54;;;;;;;14.07;10.90;;;;;;;-1.81;98.65;101726.63;5033951;28;20037;-73
2023/01/11 08:26:21;;;;;;;17.17;10.10;;;;;;;-1.79;99.08;101725.66;5033882;28;20530;-73
2023/01/11 08:28:47;;;;;;;20.43;12.83;;;;;;;-1.69;98.88;101727.00;5034044;28;20347;-73
2023/01/11 08:31:13;;;;;;;21.77;13.03;;;;;;;-1.66;97.60;101726.03;5034135;28;20345;-74
2023/01/11 08:33:38;;;;;;;29.00;16.40;;;;;;;-1.73;98.15;101716.75;5034011;28;20044;-73
2023/01/11 08:36:06;;;;;;;36.33;19.33;;;;;;;-1.78;98.14;101701.22;5016277;28;20033;-73
2023/01/11 08:38:31;;;;;;;29.03;17.40;;;;;;;-1.68;97.89;101718.25;5016468;28;20112;-73
2023/01/11 08:40:57;;;;;;;31.87;17.13;;;;;;;-1.79;98.29;101712.59;5033556;28;20347;-73
2023/01/11 08:43:23;;;;;;;23.63;16.17;;;;;;;-1.74;98.04;101720.22;5033844;28;20033;-76
2023/01/11 08:45:50;;;;;;;33.67;18.17;;;;;;;-1.78;98.36;101716.06;5034154;28;20051;-71
2023/01/11 08:48:15;;;;;;;21.17;14.77;;;;;;;-1.82;98.13;101715.31;5034014;28;20252;-71
2023/01/11 08:50:43;;;;;;;21.37;14.27;;;;;;;-1.89;97.93;101714.72;5034161;28;20314;-72
2023/01/11 08:53:10;;;;;;;22.50;14.33;;;;;;;-1.78;98.20;101723.88;5033890;28;20030;-74
2023/01/11 08:55:35;;;;;;;18.53;11.53;;;;;;;-1.93;98.60;101704.47;5033712;28;20264;-74
2023/01/11 08:58:01;;;;;;;15.20;10.40;;;;;;;-1.85;98.78;101728.50;5033785;28;20284;-74
2023/01/11 09:00:27;;;;;;;11.30;9.30;;;;;;;-1.84;99.08;101721.53;5034291;28;20041;-73
2023/01/11 09:02:52;;;;;;;16.77;11.13;;;;;;;-1.81;98.48;101709.19;5035081;28;20608;-73
2023/01/11 09:05:18;;;;;;;15.23;8.97;;;;;;;-1.73;98.17;101727.19;5037233;28;20116;-73
2023/01/11 09:07:44;;;;;;;13.53;8.90;;;;;;;-1.80;98.41;101718.72;5020134;28;20049;-69
2023/01/11 09:10:10;;;;;;;13.33;8.50;;;;;;;-1.81;97.92;101724.84;5036672;28;20075;-72
2023/01/11 09:12:36;;;;;;;14.23;7.80;;;;;;;-1.84;98.70;101724.13;5015623;28;20292;-72
2023/01/11 09:15:04;;;;;;;11.93;8.00;;;;;;;-1.82;98.91;101728.38;5033361;28;20112;-70
2023/01/11 09:17:33;;;;;;;12.00;8.33;;;;;;;-1.94;98.35;101706.22;5033973;28;20124;-70
2023/01/11 09:19:58;;;;;;;14.60;8.60;;;;;;;-1.84;98.70;101724.13;5034082;28;20413;-71
2023/01/11 09:22:23;;;;;;;11.07;7.90;;;;;;;-1.85;98.69;101714.59;5034803;28;20025;-70
2023/01/11 09:24:49;;;;;;;10.87;7.47;;;;;;;-1.81;98.05;101724.00;5021466;28;20377;-72
2023/01/11 09:27:15;;;;;;;11.53;7.10;;;;;;;-1.86;98.35;101711.13;5022974;28;20070;-72
2023/01/11 09:29:40;;;;;;;15.50;8.83;;;;;;;-1.80;98.35;101729.16;5039058;28;20093;-73
2023/01/11 09:32:06;;;;;;;10.60;6.97;;;;;;;-1.78;97.74;101724.72;5020573;28;20060;-72
2023/01/11 09:34:32;;;;;;;12.37;8.27;;;;;;;-1.77;98.14;101723.81;5035354;28;20461;-73
2023/01/11 09:36:59;;;;;;;14.83;8.17;;;;;;;-1.78;98.00;101714.28;5017958;28;20025;-73
2023/01/11 09:39:26;;;;;;;11.67;7.87;;;;;;;-1.69;97.97;101734.84;5041101;28;20029;-69
2023/01/11 09:42:37;;;;;;;11.57;8.00;;;;;;;-1.69;97.11;101718.31;5050763;28;20287;-70
2023/01/11 09:45:13;;;;;;;10.37;6.73;;;;;;;-1.81;97.56;101697.91;5051402;28;20272;-69
2023/01/11 09:47:44;;;;;;;10.37;8.33;;;;;;;-1.74;97.36;101718.47;5050166;28;20594;-71
2023/01/11 09:50:16;;;;;;;12.67;7.47;;;;;;;-2.04;97.33;101685.75;5035132;28;20264;-72
2023/01/11 09:52:46;;;;;;;9.90;6.97;;;;;;;-1.84;97.74;101709.31;5015013;28;20306;-72
2023/01/11 09:55:18;;;;;;;11.37;7.07;;;;;;;-1.77;97.73;101722.97;5032545;28;20276;-73
2023/01/11 09:58:06;;;;;;;12.03;8.43;;;;;;;-1.79;96.74;101712.59;5014919;28;20275;-72
2023/01/11 10:00:44;;;;;;;14.50;7.83;;;;;;;-1.86;97.24;101708.53;5014656;28;20402;-73
2023/01/11 10:03:44;;;;;;;13.57;7.63;;;;;;;-1.92;98.14;101711.38;5033001;28;20291;-73
2023/01/11 10:06:44;;;;;;;16.90;8.23;;;;;;;-1.82;98.07;101720.53;5032387;28;20354;-73
2023/01/11 10:09:31;;;;;;;15.48;7.57;;;;;;;-1.79;97.35;101723.03;5032405;28;20033;-69
2023/01/11 10:12:22;;;;;;;14.60;7.70;;;;;;;-1.80;97.57;101721.34;5031939;28;20056;-73
2023/01/11 10:15:26;;;;;;;13.77;7.73;;;;;;;-1.76;97.02;101722.06;5032012;28;20288;-75
2023/01/11 10:18:32;;;;;;;18.93;11.07;;;;;;;-1.82;97.22;101706.63;5018128;28;20275;-73
2023/01/11 10:21:13;;;;;;;17.60;9.20;;;;;;;-1.76;97.75;101719.44;5035503;28;20414;-72
2023/01/11 10:23:55;;;;;;;11.17;8.10;;;;;;;-1.83;97.64;101711.00;5034080;28;20325;-72
2023/01/11 10:26:26;;;;;;;18.83;9.73;;;;;;;-1.72;97.49;101724.50;5035065;28;20259;-76
2023/01/11 10:40:33;;;;;;;17.27;10.07;;;;;;;-1.77;96.37;101702.09;5031730;28;20703;-74
2023/01/11 10:43:15;;;;;;;13.67;7.87;;;;;;;-1.73;95.89;101720.22;5032078;28;20353;-72
2023/01/11 10:45:56;;;;;;;12.90;7.83;;;;;;;-1.76;96.20;101724.66;5031868;28;20830;-73
2023/01/11 10:48:28;;;;;;;17.50;9.60;;;;;;;-1.79;95.88;101732.63;5031926;28;20719;-71
2023/01/11 10:51:16;;;;;;;14.07;8.27;;;;;;;-1.79;96.51;101724.78;5031775;28;20260;-71
2023/01/11 10:53:59;;;;;;;20.95;11.50;;;;;;;-1.75;96.71;101722.00;5031513;28;20334;-70
2023/01/11 10:56:54;;;;;;;13.17;8.97;;;;;;;-1.76;96.59;101720.31;5031567;28;20032;-70
2023/01/11 10:59:40;;;;;;;12.27;7.97;;;;;;;-1.82;96.21;101717.94;5031836;28;20599;-72
2023/01/11 11:02:33;;;;;;;22.17;11.73;;;;;;;-1.81;96.63;101713.56;5031628;28;20252;-72
2023/01/11 11:05:32;;;;;;;19.73;11.97;;;;;;;-1.79;96.87;101720.41;5031904;28;20314;-74
2023/01/11 11:08:08;;;;;;;12.60;8.57;;;;;;;-1.85;96.45;101720.66;5031589;28;20463;-71
2023/01/11 11:10:56;;;;;;;14.87;8.37;;;;;;;-1.79;96.68;101715.19;4997931;28;20350;-73
2023/01/11 11:14:16;;;;;;;20.10;10.07;;;;;;;-1.70;96.09;101722.69;5019058;28;20291;-70
2023/01/11 11:17:17;;;;;;;11.83;8.50;;;;;;;-1.82;95.76;101717.09;4958101;29;20290;-71
2023/01/11 11:19:45;;;;;;;16.07;8.63;;;;;;;-1.81;96.33;101706.59;4958402;29;20285;-70
2023/01/11 11:22:11;;;;;;;27.93;13.00;;;;;;;-1.93;96.38;101704.47;5001456;28;20347;-72
2023/01/11 11:24:49;;;;;;;25.17;12.43;;;;;;;-1.93;96.84;101726.19;5013059;28;20292;-72
2023/01/11 11:27:39;;;;;;;13.60;9.48;;;;;;;-1.90;97.12;101722.63;5011740;28;20764;-72
2023/01/11 11:30:08;;;;;;;19.55;10.20;;;;;;;-2.02;97.06;101716.13;5010568;28;20037;-71
2023/01/11 11:32:41;;;;;;;18.07;9.97;;;;;;;-1.96;97.51;101720.25;5011589;28;20026;-73
2023/01/11 11:35:34;;;;;;;18.87;10.50;;;;;;;-1.91;97.77;101710.47;5014172;28;20788;-75
2023/01/11 11:38:00;;;;;;;23.47;10.63;;;;;;;-1.86;97.02;101718.97;5014520;28;20272;-73
2023/01/11 11:40:29;;;;;;;13.37;9.30;;;;;;;-1.91;96.88;101713.09;5013592;28;20649;-73
2023/01/11 11:43:18;;;;;;;21.43;13.07;;;;;;;-1.85;97.46;101720.66;5014425;28;20026;-70
2023/01/11 11:45:53;;;;;;;17.87;11.23;;;;;;;-1.84;96.68;101717.16;5027283;28;20621;-73
2023/01/11 11:48:20;;;;;;;13.97;9.03;;;;;;;-1.79;96.62;101728.25;5024178;28;20037;-71
2023/01/11 11:50:48;;;;;;;15.20;10.83;;;;;;;-1.76;96.81;101733.34;5027250;28;20257;-70
2023/01/11 11:53:25;;;;;;;17.07;10.13;;;;;;;-1.69;96.16;101724.38;5013964;28;20759;-73
2023/01/11 11:55:52;;;;;;;15.87;10.13;;;;;;;-1.79;96.02;101725.66;5014138;28;20265;-69
2023/01/11 11:58:20;;;;;;;18.90;10.00;;;;;;;-1.82;96.88;101707.50;5013534;28;20605;-73
2023/01/11 12:00:48;;;;;;;19.60;9.07;;;;;;;-1.84;96.68;101706.69;5014670;28;20271;-72
2023/01/11 12:03:19;;;;;;;19.90;10.57;;;;;;;-1.87;96.75;101709.44;5014852;28;20389;-73
2023/01/11 12:05:52;;;;;;;21.23;11.97;;;;;;;-2.05;97.18;101684.88;5014974;28;20260;-72
2023/01/11 12:08:20;;;;;;;19.00;11.13;;;;;;;-1.89;96.46;101706.03;5014772;28;20267;-73
2023/01/11 12:11:00;;;;;;;16.27;9.32;;;;;;;-2.00;96.65;101698.63;5013374;28;20364;-73
2023/01/11 12:13:32;;;;;;;21.10;9.68;;;;;;;-2.23;96.94;101699.50;5014233;28;20030;-72
2023/01/11 12:16:18;;;;;;;16.50;9.73;;;;;;;-2.15;97.92;101707.03;5023973;28;20057;-73